Time;durP1;ratioP1;P1;durP2;ratioP2;P2;SDS_P1;SDS_P2;PMS_P1;PMS_P2;Temp;Humidity;BMP_temperature;BMP_pressure;BME280_temperature;BME280_humidity;BME280_pressure;Samples;Min_cycle;Max_cycle;Signal;HPM_P1;HPM_P2
2022/01/06 00:00:58;;;;;;;5.97;3.40;;;;;;;;;;5010662;28;20237;-91
2022/01/06 00:03:28;;;;;;;8.20;3.47;;;;;;;;;;5018448;28;20206;-90
2022/01/06 00:08:43;;;;;;;10.00;3.83;;;;;;;;;;5011672;28;20229;-90
2022/01/06 00:11:15;;;;;;;5.73;3.47;;;;;;;;;;5012974;28;20246;-90
2022/01/06 00:13:53;;;;;;;7.87;3.73;;;;;;;;;;5013055;28;20213;-90
2022/01/06 00:16:31;;;;;;;6.73;3.37;;;;;;;;;;5015704;28;20206;-90
2022/01/06 00:24:30;;;;;;;9.00;4.00;;;;;;;;;;5012112;28;20201;-90
2022/01/06 00:26:58;;;;;;;7.60;4.60;;;;;;;;;;5012060;28;20202;-91
2022/01/06 00:29:26;;;;;;;8.47;4.53;;;;;;;;;;5012054;28;20222;-91
2022/01/06 00:31:55;;;;;;;6.60;3.37;;;;;;;;;;5013618;28;20230;-91
2022/01/06 00:34:23;;;;;;;8.03;4.43;;;;;;;;;;5015096;28;20203;-91
2022/01/06 00:36:50;;;;;;;6.80;3.40;;;;;;;;;;5014873;28;20233;-91
2022/01/06 00:39:18;;;;;;;7.03;3.67;;;;;;;;;;5011045;28;20203;-91
2022/01/06 00:41:47;;;;;;;6.47;3.30;;;;;;;;;;5014074;28;20277;-91
2022/01/06 00:44:14;;;;;;;5.60;3.43;;;;;;;;;;5014382;28;20264;-91
2022/01/06 00:46:41;;;;;;;8.53;3.90;;;;;;;;;;5016041;28;20203;-91
2022/01/06 00:49:09;;;;;;;6.10;3.43;;;;;;;;;;5009041;28;20298;-91
2022/01/06 00:51:36;;;;;;;10.30;4.03;;;;;;;;;;5014537;28;20293;-91
2022/01/06 00:54:04;;;;;;;7.70;3.97;;;;;;;;;;5013091;28;20230;-91
2022/01/06 00:56:31;;;;;;;8.27;4.07;;;;;;;;;;5014153;28;20203;-91
2022/01/06 00:59:00;;;;;;;6.70;3.83;;;;;;;;;;5016317;28;20211;-91
2022/01/06 01:01:27;;;;;;;4.93;3.57;;;;;;;;;;5014419;28;20290;-91
2022/01/06 01:03:55;;;;;;;6.27;3.80;;;;;;;;;;5015516;28;20202;-91
2022/01/06 01:06:22;;;;;;;6.07;3.67;;;;;;;;;;5014215;28;20199;-91
2022/01/06 01:08:49;;;;;;;9.30;4.07;;;;;;;;;;5013900;28;20206;-91
2022/01/06 01:11:17;;;;;;;6.70;5.13;;;;;;;;;;5008064;28;20246;-91
2022/01/06 01:13:54;;;;;;;11.93;6.60;;;;;;;;;;5013498;28;20285;-91
2022/01/06 01:16:26;;;;;;;8.23;4.40;;;;;;;;;;5021541;28;20202;-90
2022/01/06 01:18:56;;;;;;;6.57;3.23;;;;;;;;;;5033943;28;20259;-90
2022/01/06 01:21:26;;;;;;;8.73;3.90;;;;;;;;;;5019384;28;20229;-90
2022/01/06 01:26:59;;;;;;;7.77;4.50;;;;;;;;;;4978343;28;20200;-88
2022/01/06 01:29:29;;;;;;;5.50;3.63;;;;;;;;;;4979579;28;20270;-86
2022/01/06 01:31:57;;;;;;;5.93;3.87;;;;;;;;;;4972892;28;20228;-86
2022/01/06 01:34:27;;;;;;;8.10;3.93;;;;;;;;;;4973545;28;20274;-86
2022/01/06 01:36:55;;;;;;;8.80;4.43;;;;;;;;;;4973612;28;20327;-86
2022/01/06 01:39:23;;;;;;;6.47;3.67;;;;;;;;;;4967677;28;20204;-86
2022/01/06 01:41:50;;;;;;;5.60;3.60;;;;;;;;;;4971268;28;20396;-86
2022/01/06 01:44:20;;;;;;;7.43;3.47;;;;;;;;;;4972466;28;20291;-86
2022/01/06 01:46:59;;;;;;;7.20;3.77;;;;;;;;;;4973295;28;20274;-86
2022/01/06 01:49:44;;;;;;;5.03;3.97;;;;;;;;;;4973646;28;20295;-86
2022/01/06 01:52:11;;;;;;;5.40;4.23;;;;;;;;;;4973863;28;20382;-86
2022/01/06 01:54:38;;;;;;;5.33;4.10;;;;;;;;;;4974364;28;20212;-86
2022/01/06 01:57:06;;;;;;;6.87;3.40;;;;;;;;;;4975252;28;20199;-86
2022/01/06 01:59:33;;;;;;;6.13;4.10;;;;;;;;;;4979433;28;20227;-86
2022/01/06 02:02:00;;;;;;;6.60;4.17;;;;;;;;;;5006539;28;20227;-86
2022/01/06 02:04:29;;;;;;;7.37;4.03;;;;;;;;;;5011156;28;20214;-86
2022/01/06 02:06:56;;;;;;;7.70;4.13;;;;;;;;;;5029518;28;20207;-86
2022/01/06 02:09:23;;;;;;;6.03;4.13;;;;;;;;;;5022165;28;20237;-86
2022/01/06 02:11:51;;;;;;;8.63;3.63;;;;;;;;;;5010317;28;20291;-86
2022/01/06 02:14:18;;;;;;;6.07;3.90;;;;;;;;;;5014284;28;20207;-86
2022/01/06 02:16:45;;;;;;;6.47;4.20;;;;;;;;;;5014443;28;20230;-86
2022/01/06 02:19:12;;;;;;;5.13;3.60;;;;;;;;;;5009741;28;20234;-86
2022/01/06 02:21:42;;;;;;;7.60;4.03;;;;;;;;;;5006515;28;20270;-86
2022/01/06 02:24:10;;;;;;;6.90;3.30;;;;;;;;;;5014062;28;20202;-85
2022/01/06 02:26:37;;;;;;;7.60;3.77;;;;;;;;;;5013792;28;20199;-86
2022/01/06 02:29:04;;;;;;;8.90;3.80;;;;;;;;;;5014008;28;20198;-86
2022/01/06 02:31:40;;;;;;;6.67;3.40;;;;;;;;;;5014569;28;20317;-85
2022/01/06 02:34:08;;;;;;;6.17;3.63;;;;;;;;;;5012210;28;20308;-86
2022/01/06 02:36:35;;;;;;;6.80;4.10;;;;;;;;;;5016627;28;20217;-86
2022/01/06 02:39:04;;;;;;;9.40;3.67;;;;;;;;;;5014793;28;20237;-86
2022/01/06 02:41:32;;;;;;;5.27;3.50;;;;;;;;;;5012383;28;20317;-86
2022/01/06 02:44:00;;;;;;;6.37;3.30;;;;;;;;;;5013161;28;20202;-87
2022/01/06 02:46:27;;;;;;;7.30;4.13;;;;;;;;;;5011416;28;20286;-86
2022/01/06 02:48:55;;;;;;;7.77;3.83;;;;;;;;;;5006726;28;20238;-86
2022/01/06 02:51:22;;;;;;;5.67;3.50;;;;;;;;;;5028575;23;21369;-83
2022/01/06 02:53:52;;;;;;;6.73;3.70;;;;;;;;;;5017915;28;20210;-83
2022/01/06 02:56:21;;;;;;;4.50;3.43;;;;;;;;;;5013726;28;20318;-82
2022/01/06 02:58:49;;;;;;;4.93;3.50;;;;;;;;;;5031403;28;20202;-82
2022/01/06 03:01:16;;;;;;;5.33;3.30;;;;;;;;;;5015237;28;20222;-83
2022/01/06 03:03:43;;;;;;;4.47;3.33;;;;;;;;;;5011272;28;20236;-83
2022/01/06 03:06:10;;;;;;;6.33;3.40;;;;;;;;;;5004539;28;20230;-83
2022/01/06 03:08:38;;;;;;;5.47;3.43;;;;;;;;;;5014357;28;20206;-83
2022/01/06 03:11:07;;;;;;;7.27;3.27;;;;;;;;;;5015496;28;20277;-82
2022/01/06 03:13:35;;;;;;;5.17;3.27;;;;;;;;;;5008614;28;20198;-82
2022/01/06 03:16:03;;;;;;;3.40;3.10;;;;;;;;;;5003628;28;20207;-82
2022/01/06 03:18:31;;;;;;;6.20;3.70;;;;;;;;;;5008492;28;20203;-83
2022/01/06 03:20:58;;;;;;;4.03;3.03;;;;;;;;;;5003533;28;20381;-83
2022/01/06 03:23:25;;;;;;;5.77;3.47;;;;;;;;;;5004032;28;20214;-83
2022/01/06 03:25:52;;;;;;;5.43;3.67;;;;;;;;;;4999838;28;20290;-83
2022/01/06 03:28:20;;;;;;;4.50;3.07;;;;;;;;;;5004442;28;20207;-82
2022/01/06 03:30:48;;;;;;;6.97;4.17;;;;;;;;;;5000178;28;20199;-83
2022/01/06 03:33:16;;;;;;;6.73;4.00;;;;;;;;;;5005974;28;20623;-83
2022/01/06 03:35:45;;;;;;;5.30;3.33;;;;;;;;;;5010752;28;20215;-82
2022/01/06 03:38:13;;;;;;;7.80;3.90;;;;;;;;;;5019819;28;20238;-83
2022/01/06 03:40:40;;;;;;;5.00;3.67;;;;;;;;;;5022270;28;20218;-81
2022/01/06 03:43:07;;;;;;;5.20;3.37;;;;;;;;;;5007888;28;20297;-83
2022/01/06 03:45:35;;;;;;;6.33;4.00;;;;;;;;;;5004930;28;20225;-83
2022/01/06 03:48:04;;;;;;;7.57;4.13;;;;;;;;;;5007446;28;20208;-83
2022/01/06 03:50:32;;;;;;;7.73;5.10;;;;;;;;;;5004109;28;20237;-80
2022/01/06 03:52:59;;;;;;;7.43;3.50;;;;;;;;;;5006164;28;20218;-82
2022/01/06 03:55:27;;;;;;;5.60;4.00;;;;;;;;;;5008244;28;20205;-83
2022/01/06 03:57:54;;;;;;;7.00;4.20;;;;;;;;;;5004175;28;20234;-83
2022/01/06 04:00:22;;;;;;;6.60;4.60;;;;;;;;;;4999512;28;20218;-81
2022/01/06 04:02:51;;;;;;;5.47;4.20;;;;;;;;;;5009151;28;20269;-82
2022/01/06 04:05:20;;;;;;;5.23;3.60;;;;;;;;;;4999867;28;20239;-83
2022/01/06 04:07:48;;;;;;;5.70;4.07;;;;;;;;;;5016101;28;20199;-83
2022/01/06 04:10:16;;;;;;;5.57;4.00;;;;;;;;;;5014690;28;20203;-83
2022/01/06 04:12:43;;;;;;;5.40;3.80;;;;;;;;;;5011874;28;20246;-83
2022/01/06 04:15:13;;;;;;;6.73;4.00;;;;;;;;;;5005408;28;20209;-82
2022/01/06 04:17:40;;;;;;;4.80;3.80;;;;;;;;;;5008043;28;20226;-83
2022/01/06 04:20:08;;;;;;;6.00;3.90;;;;;;;;;;5003381;28;20206;-82
2022/01/06 04:22:37;;;;;;;6.03;3.70;;;;;;;;;;5011964;28;20250;-82
2022/01/06 04:25:05;;;;;;;4.83;3.77;;;;;;;;;;5006513;28;20414;-82
2022/01/06 04:27:32;;;;;;;4.93;3.70;;;;;;;;;;5003048;28;20207;-83
2022/01/06 04:30:00;;;;;;;7.50;4.13;;;;;;;;;;5009535;28;20207;-83
2022/01/06 04:32:28;;;;;;;5.67;4.20;;;;;;;;;;5009493;28;20242;-82
2022/01/06 04:34:55;;;;;;;10.07;4.30;;;;;;;;;;5009418;28;20199;-83
2022/01/06 04:37:24;;;;;;;8.53;4.57;;;;;;;;;;5013056;28;20281;-82
2022/01/06 04:39:53;;;;;;;8.47;4.40;;;;;;;;;;5019368;28;20320;-83
2022/01/06 04:42:20;;;;;;;7.47;4.17;;;;;;;;;;5007225;28;20285;-81
2022/01/06 04:44:47;;;;;;;6.40;3.50;;;;;;;;;;5009221;28;20345;-83
2022/01/06 04:47:14;;;;;;;7.97;4.07;;;;;;;;;;5013181;28;20226;-82
2022/01/06 04:49:42;;;;;;;6.80;3.90;;;;;;;;;;5004519;28;20242;-82
2022/01/06 04:52:09;;;;;;;6.53;4.00;;;;;;;;;;5010656;28;20235;-82
2022/01/06 04:54:36;;;;;;;7.60;3.90;;;;;;;;;;5011802;28;20187;-83
2022/01/06 04:57:05;;;;;;;6.57;3.97;;;;;;;;;;5025300;28;20214;-82
2022/01/06 04:59:32;;;;;;;7.63;4.17;;;;;;;;;;5015706;28;20211;-83
2022/01/06 05:02:00;;;;;;;7.47;4.47;;;;;;;;;;5013228;28;20230;-83
2022/01/06 05:04:27;;;;;;;6.83;4.70;;;;;;;;;;5009425;28;20218;-83
2022/01/06 05:06:54;;;;;;;5.43;3.83;;;;;;;;;;5022715;28;20203;-82
2022/01/06 05:09:21;;;;;;;6.07;4.40;;;;;;;;;;5020024;28;20215;-83
2022/01/06 05:11:49;;;;;;;7.27;4.30;;;;;;;;;;5016884;28;20281;-83
2022/01/06 05:14:18;;;;;;;6.77;4.40;;;;;;;;;;5012839;28;20254;-83
2022/01/06 05:16:45;;;;;;;8.00;4.00;;;;;;;;;;5013528;28;20203;-81
2022/01/06 05:19:12;;;;;;;5.43;4.10;;;;;;;;;;5007578;28;20230;-83
2022/01/06 05:21:39;;;;;;;5.60;4.37;;;;;;;;;;5012627;28;20231;-82
2022/01/06 05:24:12;;;;;;;5.17;4.20;;;;;;;;;;5015012;28;20222;-83
2022/01/06 05:26:40;;;;;;;5.93;4.00;;;;;;;;;;5007660;28;20203;-83
2022/01/06 05:29:07;;;;;;;7.03;4.20;;;;;;;;;;5013710;28;20218;-84
2022/01/06 05:31:36;;;;;;;4.67;3.60;;;;;;;;;;5010597;28;20748;-83
2022/01/06 05:34:04;;;;;;;7.13;4.53;;;;;;;;;;5004557;28;20701;-83
2022/01/06 05:36:31;;;;;;;6.03;3.87;;;;;;;;;;5003258;28;20231;-83
2022/01/06 05:38:58;;;;;;;5.23;3.93;;;;;;;;;;5006218;28;20646;-81
2022/01/06 05:41:26;;;;;;;4.80;4.03;;;;;;;;;;5005478;28;20724;-83
2022/01/06 05:43:53;;;;;;;4.67;4.00;;;;;;;;;;5011452;28;20305;-83
2022/01/06 05:46:21;;;;;;;5.50;3.80;;;;;;;;;;5006036;28;20258;-83
2022/01/06 05:48:49;;;;;;;4.87;4.00;;;;;;;;;;5002916;28;20199;-84
2022/01/06 05:51:18;;;;;;;5.13;3.90;;;;;;;;;;5012990;28;20246;-83
2022/01/06 05:53:45;;;;;;;6.17;3.80;;;;;;;;;;5006475;28;20207;-83
2022/01/06 05:56:12;;;;;;;6.93;4.30;;;;;;;;;;5005145;28;20223;-83
2022/01/06 05:58:40;;;;;;;4.70;4.00;;;;;;;;;;5013883;28;20233;-82
2022/01/06 06:01:08;;;;;;;5.47;4.10;;;;;;;;;;5001202;28;20204;-83
2022/01/06 06:03:39;;;;;;;7.10;3.87;;;;;;;;;;5007285;28;20230;-83
2022/01/06 06:06:07;;;;;;;5.20;3.60;;;;;;;;;;5004902;28;20230;-82
2022/01/06 06:08:34;;;;;;;5.33;3.43;;;;;;;;;;5015067;28;20289;-82
2022/01/06 06:11:02;;;;;;;5.60;3.73;;;;;;;;;;5000675;28;20223;-82
2022/01/06 06:13:32;;;;;;;6.93;3.60;;;;;;;;;;5006809;28;20238;-83
2022/01/06 06:15:59;;;;;;;7.03;4.10;;;;;;;;;;5002268;28;20253;-82
2022/01/06 06:18:26;;;;;;;8.27;4.13;;;;;;;;;;5010888;28;20205;-83
2022/01/06 06:20:53;;;;;;;6.90;3.93;;;;;;;;;;5018750;28;20260;-83
2022/01/06 06:23:22;;;;;;;8.70;4.00;;;;;;;;;;5017552;28;20309;-80
2022/01/06 06:25:50;;;;;;;6.03;4.20;;;;;;;;;;5024038;28;20213;-82
2022/01/06 06:28:17;;;;;;;7.07;4.00;;;;;;;;;;5016116;28;20211;-83
2022/01/06 06:30:46;;;;;;;7.40;3.77;;;;;;;;;;5010495;28;20233;-84
2022/01/06 06:33:13;;;;;;;6.53;3.77;;;;;;;;;;5015387;28;20229;-83
2022/01/06 06:35:40;;;;;;;6.90;3.83;;;;;;;;;;5012546;28;20195;-83
2022/01/06 06:38:10;;;;;;;7.80;3.80;;;;;;;;;;5016247;28;20271;-83
2022/01/06 06:40:39;;;;;;;7.00;3.73;;;;;;;;;;5016839;28;20198;-82
2022/01/06 06:43:08;;;;;;;6.43;3.70;;;;;;;;;;5015281;28;20226;-82
2022/01/06 06:45:35;;;;;;;6.60;3.90;;;;;;;;;;5017725;28;20269;-82
2022/01/06 06:48:02;;;;;;;6.17;3.73;;;;;;;;;;5013992;28;20218;-82
2022/01/06 06:50:31;;;;;;;7.50;4.10;;;;;;;;;;5025734;28;20199;-84
2022/01/06 06:52:58;;;;;;;6.33;3.60;;;;;;;;;;5027709;28;20233;-83
2022/01/06 06:55:26;;;;;;;5.10;3.60;;;;;;;;;;5020550;28;20191;-82
2022/01/06 06:57:56;;;;;;;6.20;3.73;;;;;;;;;;5014600;28;20245;-82
2022/01/06 07:00:23;;;;;;;5.97;3.77;;;;;;;;;;5014633;28;20294;-82
2022/01/06 07:02:51;;;;;;;5.90;4.17;;;;;;;;;;5012258;28;20261;-82
2022/01/06 07:05:19;;;;;;;9.00;3.80;;;;;;;;;;5015382;28;20213;-84
2022/01/06 07:07:46;;;;;;;6.13;3.70;;;;;;;;;;5013289;28;20202;-82
2022/01/06 07:10:14;;;;;;;5.97;4.00;;;;;;;;;;5014100;28;20294;-82
2022/01/06 07:12:41;;;;;;;7.27;4.30;;;;;;;;;;5010559;28;20228;-82
2022/01/06 07:15:12;;;;;;;5.37;4.20;;;;;;;;;;5009608;28;20195;-82
2022/01/06 07:17:40;;;;;;;6.53;4.03;;;;;;;;;;5013532;28;20202;-83
2022/01/06 07:20:08;;;;;;;5.60;3.90;;;;;;;;;;5013753;28;20199;-82
2022/01/06 07:22:35;;;;;;;7.20;4.13;;;;;;;;;;5010372;28;20222;-82
2022/01/06 07:25:02;;;;;;;6.27;3.97;;;;;;;;;;5009532;28;20206;-84
2022/01/06 07:27:32;;;;;;;6.77;4.70;;;;;;;;;;5011993;28;20218;-87
2022/01/06 07:29:59;;;;;;;6.80;4.20;;;;;;;;;;5013002;28;20220;-84
2022/01/06 07:32:28;;;;;;;6.17;4.23;;;;;;;;;;5012506;28;20231;-83
2022/01/06 07:34:55;;;;;;;7.63;4.43;;;;;;;;;;5011622;28;20271;-82
2022/01/06 07:37:25;;;;;;;7.73;3.80;;;;;;;;;;5015401;28;20206;-83
2022/01/06 07:39:53;;;;;;;7.47;3.87;;;;;;;;;;5014368;28;20237;-83
2022/01/06 07:42:25;;;;;;;6.07;4.20;;;;;;;;;;5014929;28;20281;-83
2022/01/06 07:44:55;;;;;;;5.83;4.00;;;;;;;;;;5015358;28;20195;-83
2022/01/06 07:47:22;;;;;;;7.77;4.50;;;;;;;;;;5015801;28;20202;-82
2022/01/06 07:49:54;;;;;;;7.60;4.00;;;;;;;;;;5014646;28;20206;-85
2022/01/06 07:52:22;;;;;;;7.27;4.93;;;;;;;;;;5018264;28;20272;-83
2022/01/06 07:54:49;;;;;;;6.87;4.70;;;;;;;;;;5015846;28;20203;-83
2022/01/06 07:57:19;;;;;;;8.13;4.90;;;;;;;;;;5016050;28;20202;-82
2022/01/06 07:59:49;;;;;;;7.17;4.47;;;;;;;;;;5013253;28;20210;-83
2022/01/06 08:02:16;;;;;;;6.80;4.27;;;;;;;;;;5017203;28;20238;-82
2022/01/06 08:04:50;;;;;;;7.20;4.50;;;;;;;;;;5025197;28;20210;-82
2022/01/06 08:07:21;;;;;;;7.87;4.43;;;;;;;;;;5017076;28;20332;-83
2022/01/06 08:09:52;;;;;;;10.70;5.33;;;;;;;;;;5014521;28;20302;-83
2022/01/06 08:12:19;;;;;;;7.80;4.67;;;;;;;;;;5015131;28;20697;-82
2022/01/06 08:14:46;;;;;;;6.23;4.00;;;;;;;;;;5015931;28;20270;-82
2022/01/06 08:17:14;;;;;;;10.23;5.23;;;;;;;;;;5016399;28;20203;-83
2022/01/06 08:19:43;;;;;;;10.97;6.87;;;;;;;;;;5019971;28;20203;-83
2022/01/06 08:22:10;;;;;;;12.20;6.70;;;;;;;;;;5017667;28;20255;-84
2022/01/06 08:24:40;;;;;;;11.17;5.97;;;;;;;;;;5020040;28;20213;-82
2022/01/06 08:27:10;;;;;;;8.77;6.23;;;;;;;;;;5014357;28;20218;-84
2022/01/06 08:29:37;;;;;;;7.17;4.90;;;;;;;;;;5017433;28;20202;-83
2022/01/06 08:32:05;;;;;;;8.70;5.43;;;;;;;;;;5018510;28;20313;-83
2022/01/06 08:34:32;;;;;;;10.40;5.70;;;;;;;;;;5018029;28;20207;-83
2022/01/06 08:37:00;;;;;;;7.50;5.40;;;;;;;;;;5018691;28;20203;-83
2022/01/06 08:39:27;;;;;;;11.07;6.07;;;;;;;;;;5011587;28;20206;-83
2022/01/06 08:41:56;;;;;;;7.47;5.70;;;;;;;;;;5018480;28;20230;-83
2022/01/06 08:44:23;;;;;;;9.20;5.70;;;;;;;;;;5016233;28;20222;-84
2022/01/06 08:46:51;;;;;;;7.77;5.20;;;;;;;;;;5019202;28;20203;-84
2022/01/06 08:49:18;;;;;;;9.80;6.60;;;;;;;;;;5012115;28;20230;-83
2022/01/06 08:51:45;;;;;;;6.73;5.20;;;;;;;;;;5040190;22;20233;-85
2022/01/06 08:54:13;;;;;;;8.57;5.20;;;;;;;;;;5016863;28;20276;-85
2022/01/06 08:56:40;;;;;;;7.67;5.73;;;;;;;;;;5018601;28;20268;-85
2022/01/06 08:59:11;;;;;;;6.50;5.40;;;;;;;;;;5032788;28;20270;-85
2022/01/06 09:01:38;;;;;;;10.47;5.03;;;;;;;;;;5033750;28;20232;-85
2022/01/06 09:04:06;;;;;;;9.13;5.90;;;;;;;;;;5042815;28;20225;-85
2022/01/06 09:06:33;;;;;;;8.17;5.37;;;;;;;;;;5032063;28;20210;-84
2022/01/06 09:09:01;;;;;;;7.43;5.37;;;;;;;;;;5036738;28;20230;-84
2022/01/06 09:11:28;;;;;;;11.17;5.70;;;;;;;;;;5036600;28;20241;-85
2022/01/06 09:13:55;;;;;;;7.27;4.50;;;;;;;;;;5032741;28;20205;-83
2022/01/06 09:16:24;;;;;;;9.67;5.23;;;;;;;;;;5046216;28;20269;-84
2022/01/06 09:18:51;;;;;;;10.80;4.87;;;;;;;;;;5027515;28;20652;-83
2022/01/06 09:21:22;;;;;;;5.40;4.37;;;;;;;;;;5042530;28;20256;-82
2022/01/06 09:23:50;;;;;;;7.27;4.47;;;;;;;;;;5027689;28;20245;-84
2022/01/06 09:26:17;;;;;;;6.27;4.67;;;;;;;;;;5037201;28;20208;-83
2022/01/06 09:28:44;;;;;;;5.87;3.80;;;;;;;;;;5029222;28;20225;-85
2022/01/06 09:31:12;;;;;;;9.33;4.73;;;;;;;;;;5049402;28;20232;-85
2022/01/06 09:33:41;;;;;;;7.20;4.30;;;;;;;;;;5045215;28;20210;-84
2022/01/06 09:36:08;;;;;;;6.23;4.40;;;;;;;;;;5034349;28;20233;-84
2022/01/06 09:38:35;;;;;;;5.77;3.87;;;;;;;;;;5022897;28;20244;-84
2022/01/06 09:41:05;;;;;;;6.13;3.60;;;;;;;;;;5020906;28;20213;-86
2022/01/06 09:43:34;;;;;;;5.30;3.93;;;;;;;;;;5037349;28;20217;-84
2022/01/06 09:46:03;;;;;;;5.13;4.00;;;;;;;;;;5034059;28;20209;-83
2022/01/06 09:48:31;;;;;;;6.07;4.20;;;;;;;;;;5041010;28;20216;-85
2022/01/06 09:50:59;;;;;;;9.03;4.33;;;;;;;;;;5033503;28;20237;-84
2022/01/06 09:53:27;;;;;;;8.53;3.87;;;;;;;;;;5034139;28;20242;-84
2022/01/06 09:55:55;;;;;;;7.37;4.30;;;;;;;;;;5034660;28;20206;-83
2022/01/06 09:58:26;;;;;;;8.93;5.00;;;;;;;;;;5034208;28;20237;-85
2022/01/06 10:00:55;;;;;;;5.00;3.83;;;;;;;;;;5029365;28;20210;-85
2022/01/06 10:03:23;;;;;;;7.03;4.10;;;;;;;;;;5033239;28;20226;-85
2022/01/06 10:05:50;;;;;;;7.07;4.20;;;;;;;;;;5030000;28;20214;-83
2022/01/06 10:08:28;;;;;;;6.80;4.30;;;;;;;;;;5027015;28;20226;-84
2022/01/06 10:11:08;;;;;;;6.93;4.60;;;;;;;;;;5048853;28;20254;-86
2022/01/06 10:13:36;;;;;;;8.23;5.37;;;;;;;;;;5047253;28;20276;-89
2022/01/06 10:16:12;;;;;;;8.77;4.70;;;;;;;;;;5048994;28;20202;-84
2022/01/06 10:18:39;;;;;;;8.10;4.30;;;;;;;;;;5043835;28;20191;-86
2022/01/06 10:21:13;;;;;;;6.30;4.53;;;;;;;;;;5041799;28;20194;-89
2022/01/06 10:23:42;;;;;;;8.63;4.23;;;;;;;;;;5043675;28;20236;-82
2022/01/06 10:26:16;;;;;;;6.87;3.53;;;;;;;;;;5049017;28;20200;-87
2022/01/06 10:28:43;;;;;;;5.33;3.20;;;;;;;;;;5047172;28;20218;-83
2022/01/06 10:31:10;;;;;;;4.73;3.33;;;;;;;;;;5045438;28;20208;-83
2022/01/06 10:33:40;;;;;;;5.03;3.07;;;;;;;;;;5047138;28;20248;-82
2022/01/06 10:36:08;;;;;;;7.83;4.30;;;;;;;;;;5039887;28;20256;-82
2022/01/06 10:38:56;;;;;;;6.73;3.27;;;;;;;;;;5031104;28;20233;-86
2022/01/06 10:41:27;;;;;;;7.67;3.13;;;;;;;;;;5036505;28;20209;-82
2022/01/06 10:43:55;;;;;;;7.57;3.50;;;;;;;;;;5051435;28;20227;-84
2022/01/06 10:46:29;;;;;;;7.97;3.40;;;;;;;;;;5038724;28;20215;-85
2022/01/06 10:48:58;;;;;;;5.90;3.50;;;;;;;;;;5035568;28;20210;-85
2022/01/06 10:51:34;;;;;;;6.93;3.23;;;;;;;;;;5034823;28;20238;-83
2022/01/06 10:54:14;;;;;;;6.80;3.23;;;;;;;;;;5036268;28;20205;-81
2022/01/06 10:56:41;;;;;;;7.20;3.43;;;;;;;;;;5024960;28;20206;-83
2022/01/06 10:59:10;;;;;;;7.30;2.70;;;;;;;;;;5032846;28;20208;-82
2022/01/06 11:01:38;;;;;;;7.90;2.90;;;;;;;;;;5028794;28;20228;-82
2022/01/06 11:04:05;;;;;;;5.90;3.03;;;;;;;;;;5028742;28;20230;-81
2022/01/06 11:06:36;;;;;;;8.50;3.00;;;;;;;;;;5038735;28;20246;-86
2022/01/06 11:09:05;;;;;;;5.83;3.40;;;;;;;;;;5029163;28;20206;-83
2022/01/06 11:14:23;;;;;;;4.63;3.00;;;;;;;;;;5030144;28;20265;-85
2022/01/06 11:16:53;;;;;;;4.70;2.80;;;;;;;;;;5024308;28;20218;-81
2022/01/06 11:19:23;;;;;;;7.23;2.93;;;;;;;;;;5033996;28;20277;-82
2022/01/06 11:21:50;;;;;;;6.20;2.80;;;;;;;;;;5037010;28;20256;-82
2022/01/06 11:24:19;;;;;;;5.80;3.10;;;;;;;;;;5035131;28;20213;-81
2022/01/06 11:27:04;;;;;;;7.83;4.13;;;;;;;;;;5030339;28;20260;-85
2022/01/06 11:29:34;;;;;;;5.73;3.53;;;;;;;;;;5033100;28;20236;-82
2022/01/06 11:32:05;;;;;;;9.17;3.47;;;;;;;;;;5030270;28;20228;-80
2022/01/06 11:34:38;;;;;;;5.70;3.17;;;;;;;;;;5031549;28;20240;-82
2022/01/06 11:37:16;;;;;;;7.10;3.87;;;;;;;;;;5032350;28;20229;-83
2022/01/06 11:39:43;;;;;;;8.43;3.80;;;;;;;;;;5034915;28;20204;-83
2022/01/06 11:42:16;;;;;;;6.73;3.27;;;;;;;;;;5035837;28;20232;-83
2022/01/06 11:44:51;;;;;;;6.23;4.30;;;;;;;;;;5040448;28;20240;-82
2022/01/06 11:47:28;;;;;;;7.07;3.27;;;;;;;;;;5045882;28;20201;-83
2022/01/06 11:50:06;;;;;;;6.90;3.27;;;;;;;;;;5025618;28;20293;-82
2022/01/06 11:52:33;;;;;;;6.30;3.13;;;;;;;;;;5028572;28;20251;-83
2022/01/06 11:55:04;;;;;;;8.77;2.83;;;;;;;;;;5028315;28;20202;-83
2022/01/06 11:57:34;;;;;;;8.00;3.50;;;;;;;;;;5019105;28;20206;-82
2022/01/06 12:00:02;;;;;;;4.23;2.90;;;;;;;;;;5025657;28;20268;-83
2022/01/06 12:02:29;;;;;;;4.90;2.63;;;;;;;;;;5018150;28;20276;-79
2022/01/06 12:05:00;;;;;;;5.27;3.13;;;;;;;;;;5031383;28;20226;-82
2022/01/06 12:07:27;;;;;;;6.27;3.23;;;;;;;;;;5024885;28;20206;-86
2022/01/06 12:09:58;;;;;;;8.27;2.87;;;;;;;;;;5028171;28;20293;-80
2022/01/06 12:12:34;;;;;;;5.47;2.63;;;;;;;;;;5026720;28;20291;-83
2022/01/06 12:15:13;;;;;;;9.77;2.80;;;;;;;;;;5030032;28;20220;-84
2022/01/06 12:17:45;;;;;;;12.97;7.17;;;;;;;;;;5027195;28;20202;-87
2022/01/06 12:20:13;;;;;;;7.83;4.17;;;;;;;;;;5039015;28;20282;-84
2022/01/06 12:22:40;;;;;;;8.03;3.23;;;;;;;;;;5030848;28;20229;-84
2022/01/06 12:25:10;;;;;;;9.40;3.53;;;;;;;;;;5024234;28;20219;-84
2022/01/06 12:27:48;;;;;;;5.50;3.10;;;;;;;;;;5026701;28;20202;-85
2022/01/06 12:30:17;;;;;;;6.47;2.60;;;;;;;;;;5030022;28;20207;-82
2022/01/06 12:32:59;;;;;;;6.97;2.60;;;;;;;;;;5035951;28;20225;-86
2022/01/06 12:35:43;;;;;;;9.17;2.60;;;;;;;;;;5021740;28;20218;-85
2022/01/06 12:38:22;;;;;;;6.80;2.60;;;;;;;;;;5028460;28;20206;-84
2022/01/06 12:40:50;;;;;;;7.53;2.87;;;;;;;;;;5040812;28;20210;-81
2022/01/06 12:43:20;;;;;;;9.43;3.53;;;;;;;;;;5040152;28;20281;-83
2022/01/06 12:46:04;;;;;;;6.90;3.50;;;;;;;;;;5036228;28;20202;-83
2022/01/06 12:48:54;;;;;;;;;;;;;;;;;;;;;
2022/01/06 12:52:18;;;;;;;6.53;2.90;;;;;;;;;;5052688;28;20310;-84
2022/01/06 13:11:32;;;;;;;7.90;2.87;;;;;;;;;;5043718;23;20228;-81
2022/01/06 13:14:03;;;;;;;7.83;2.60;;;;;;;;;;5038910;28;20198;-87
2022/01/06 13:16:31;;;;;;;6.80;2.73;;;;;;;;;;5038837;28;20263;-84
2022/01/06 13:19:20;;;;;;;7.57;2.60;;;;;;;;;;5051586;28;20216;-82
2022/01/06 13:21:56;;;;;;;7.80;3.00;;;;;;;;;;5039275;28;20781;-83
2022/01/06 13:24:29;;;;;;;7.47;3.00;;;;;;;;;;5046781;28;20224;-85
2022/01/06 13:27:02;;;;;;;9.33;3.30;;;;;;;;;;5041765;28;20225;-87
2022/01/06 13:29:41;;;;;;;7.03;3.07;;;;;;;;;;5042045;28;20400;-85
2022/01/06 13:32:13;;;;;;;7.23;2.90;;;;;;;;;;5041903;28;20271;-83
2022/01/06 13:34:44;;;;;;;8.00;2.50;;;;;;;;;;5039391;28;20206;-84
2022/01/06 13:37:16;;;;;;;6.80;2.90;;;;;;;;;;5035404;28;20270;-80
2022/01/06 13:39:47;;;;;;;5.00;2.80;;;;;;;;;;5028117;28;20208;-84
2022/01/06 13:42:29;;;;;;;5.67;2.80;;;;;;;;;;5032956;28;20218;-85
2022/01/06 13:45:04;;;;;;;5.90;2.60;;;;;;;;;;5033185;28;20218;-84
2022/01/06 13:47:36;;;;;;;5.30;2.77;;;;;;;;;;5031180;28;20285;-83
2022/01/06 13:52:51;;;;;;;6.57;3.27;;;;;;;;;;5029817;28;20222;-84
2022/01/06 13:55:26;;;;;;;7.10;3.00;;;;;;;;;;5038058;28;20650;-85
2022/01/06 13:58:01;;;;;;;6.50;2.57;;;;;;;;;;5026962;28;20206;-83
2022/01/06 14:00:30;;;;;;;7.30;2.70;;;;;;;;;;5036641;28;20205;-88
2022/01/06 14:03:05;;;;;;;7.10;2.63;;;;;;;;;;5034008;28;20222;-84
2022/01/06 14:05:33;;;;;;;7.77;2.87;;;;;;;;;;5031332;28;20225;-82
2022/01/06 14:08:12;;;;;;;;;;;;;;;;;;;;;
2022/01/06 14:10:42;;;;;;;8.57;2.77;;;;;;;;;;5036920;28;20202;-84
2022/01/06 14:13:10;;;;;;;7.87;3.00;;;;;;;;;;5034276;28;20238;-84
2022/01/06 14:15:38;;;;;;;6.50;2.73;;;;;;;;;;5039324;28;20194;-84
2022/01/06 14:18:05;;;;;;;8.03;2.53;;;;;;;;;;5038830;28;20218;-85
2022/01/06 14:20:32;;;;;;;6.50;2.70;;;;;;;;;;5034729;28;20213;-86
2022/01/06 14:23:03;;;;;;;8.13;2.80;;;;;;;;;;5045426;28;20225;-85
2022/01/06 14:25:30;;;;;;;6.97;2.60;;;;;;;;;;5036415;28;20226;-87
2022/01/06 14:28:14;;;;;;;9.30;2.77;;;;;;;;;;5043483;28;20706;-84
2022/01/06 14:33:48;;;;;;;6.67;2.83;;;;;;;;;;4974050;28;20211;-84
2022/01/06 15:04:51;;;;;;;9.70;3.20;;;;;;;;;;5005208;28;20350;-90
2022/01/06 15:07:26;;;;;;;6.73;3.00;;;;;;;;;;5014858;28;20214;-91
2022/01/06 15:10:11;;;;;;;8.23;2.97;;;;;;;;;;5013154;28;20198;-87
2022/01/06 15:12:52;;;;;;;7.60;3.30;;;;;;;;;;4984008;28;20223;-88
2022/01/06 15:15:20;;;;;;;7.97;4.47;;;;;;;;;;5004746;28;20267;-86
2022/01/06 15:18:17;;;;;;;8.93;3.67;;;;;;;;;;5001717;28;20214;-88
2022/01/06 15:23:53;;;;;;;9.13;3.20;;;;;;;;;;5381037;23;20243;-86
2022/01/06 15:29:19;;;;;;;5.93;3.10;;;;;;;;;;5031906;28;20205;-87
2022/01/06 15:32:11;;;;;;;13.63;5.90;;;;;;;;;;5032359;28;20240;-87
2022/01/06 15:34:53;;;;;;;13.80;5.07;;;;;;;;;;4998271;28;20696;-87
2022/01/06 15:43:27;;;;;;;8.77;3.60;;;;;;;;;;5002413;28;20333;-90
2022/01/06 15:46:05;;;;;;;7.93;3.90;;;;;;;;;;5010422;28;20219;-85
2022/01/06 15:48:38;;;;;;;7.57;3.70;;;;;;;;;;5002774;28;20237;-86
2022/01/06 15:51:12;;;;;;;12.93;6.40;;;;;;;;;;4996315;28;20266;-88
2022/01/06 15:53:43;;;;;;;18.03;11.87;;;;;;;;;;5036200;23;20295;-86
2022/01/06 15:56:28;;;;;;;14.17;8.37;;;;;;;;;;5015436;28;20225;-88
2022/01/06 16:07:23;;;;;;;12.80;6.37;;;;;;;;;;4997465;28;20206;-87
2022/01/06 16:15:43;;;;;;;11.30;5.17;;;;;;;;;;4970611;28;20203;-90
2022/01/06 16:18:27;;;;;;;7.07;4.10;;;;;;;;;;4996909;28;20199;-87
2022/01/06 16:21:05;;;;;;;8.07;4.20;;;;;;;;;;4996795;28;20235;-90
2022/01/06 16:23:35;;;;;;;7.20;4.47;;;;;;;;;;5009549;28;20247;-88
2022/01/06 16:28:53;;;;;;;11.63;5.93;;;;;;;;;;4988535;28;20213;-90
2022/01/06 16:34:54;;;;;;;12.10;6.60;;;;;;;;;;4995583;28;20207;-88
2022/01/06 16:43:29;;;;;;;9.13;5.97;;;;;;;;;;4995304;28;20227;-88